Time;durP1;ratioP1;P1;durP2;ratioP2;P2;SDS_P1;SDS_P2;PMS_P1;PMS_P2;Temp;Humidity;BMP_temperature;BMP_pressure;BME280_temperature;BME280_humidity;BME280_pressure;Samples;Min_cycle;Max_cycle;Signal;HPM_P1;HPM_P2
2021/05/29 03:23:52;;;;;;;13.68;7.53;;;7.30;90.00;;;;;;5890517;23;20855;-88
2021/05/29 03:30:28;;;;;;;14.90;7.50;;;7.30;90.10;;;;;;4955622;29;20448;-88
2021/05/29 05:42:10;;;;;;;10.13;6.03;;;10.00;91.80;;;;;;6062505;23;20029;-89
2021/05/29 05:48:02;;;;;;;10.63;5.38;;;10.40;91.80;;;;;;4937758;29;20030;-86
2021/05/29 05:53:50;;;;;;;10.70;5.90;;;10.60;91.60;;;;;;4937602;29;20042;-83
2021/05/29 05:59:40;;;;;;;10.30;5.63;;;10.80;91.40;;;;;;4937456;29;20035;-86
2021/05/29 06:05:29;;;;;;;10.57;5.85;;;10.90;91.30;;;;;;4937438;29;20116;-86
2021/05/29 06:11:18;;;;;;;9.23;4.90;;;11.00;91.40;;;;;;4937112;29;20380;-85
2021/05/29 06:23:13;;;;;;;10.82;5.03;;;11.20;91.30;;;;;;4937049;29;20392;-86
2021/05/29 06:29:01;;;;;;;10.00;4.90;;;11.20;91.10;;;;;;4936807;29;20051;-86
2021/05/29 06:34:51;;;;;;;10.20;5.55;;;11.20;91.10;;;;;;4936682;29;20050;-85
2021/05/29 06:44:01;;;;;;;9.43;4.68;;;11.30;91.30;;;;;;4975096;28;20057;-86
2021/05/29 06:49:54;;;;;;;9.13;4.10;;;11.50;91.30;;;;;;4975137;28;20106;-87
2021/05/29 07:01:31;;;;;;;8.43;4.00;;;11.80;91.40;;;;;;4974985;28;19913;-86
2021/05/29 07:07:19;;;;;;;8.43;4.18;;;11.90;91.40;;;;;;4975129;28;20033;-86
2021/05/29 07:13:08;;;;;;;8.23;3.63;;;12.00;91.40;;;;;;4975039;28;20518;-86
2021/05/29 07:19:00;;;;;;;8.82;4.18;;;12.20;91.60;;;;;;4974987;28;20050;-86
2021/05/29 07:25:24;;;;;;;7.90;3.30;;;12.40;91.50;;;;;;4974486;28;20061;-88
2021/05/29 07:31:13;;;;;;;6.95;3.50;;;12.60;91.60;;;;;;4896558;29;20042;-86
2021/05/29 07:37:03;;;;;;;6.53;2.85;;;12.80;91.40;;;;;;4916861;28;20033;-85
2021/05/29 07:46:57;;;;;;;7.10;2.95;;;13.30;91.50;;;;;;4955433;29;20050;-84
2021/05/29 07:52:47;;;;;;;5.45;2.58;;;13.40;91.40;;;;;;4955324;28;20102;-85
2021/05/29 07:58:40;;;;;;;5.13;2.60;;;13.70;91.70;;;;;;4958536;29;20062;-86
2021/05/29 08:04:29;;;;;;;7.25;3.13;;;13.80;91.50;;;;;;4958489;29;20046;-85
2021/05/29 08:10:17;;;;;;;5.95;2.70;;;14.00;91.50;;;;;;4958653;29;20047;-87
2021/05/29 08:16:10;;;;;;;5.38;2.33;;;14.20;91.50;;;;;;4962751;29;20046;-86
2021/05/29 08:21:59;;;;;;;5.22;2.30;;;14.40;91.60;;;;;;4961858;29;20034;-85
2021/05/29 08:27:51;;;;;;;3.92;2.17;;;14.70;91.80;;;;;;4962881;29;20077;-90
2021/05/29 08:33:40;;;;;;;5.70;2.67;;;14.90;91.40;;;;;;4964583;29;20103;-85
2021/05/29 08:39:30;;;;;;;5.70;2.50;;;15.20;91.70;;;;;;4965325;29;20070;-87
2021/05/29 08:49:21;;;;;;;9.13;3.63;;;15.80;91.80;;;;;;4966095;29;20070;-84
2021/05/29 08:55:15;;;;;;;5.93;2.63;;;16.10;91.10;;;;;;4965161;29;20059;-86
2021/05/29 09:01:11;;;;;;;6.25;2.50;;;15.90;91.00;;;;;;4964224;29;20034;-86
2021/05/29 09:07:00;;;;;;;5.07;2.33;;;16.30;91.60;;;;;;4965341;29;20298;-86
2021/05/29 09:13:03;;;;;;;4.82;2.25;;;16.50;91.20;;;;;;4967201;29;20058;-85
2021/05/29 09:19:00;;;;;;;3.80;2.08;;;16.60;91.20;;;;;;4966891;29;20039;-84
2021/05/29 09:25:04;;;;;;;4.07;2.00;;;16.80;91.20;;;;;;4965350;29;20033;-86
2021/05/29 09:30:53;;;;;;;2.55;1.73;;;17.20;91.80;;;;;;4965796;29;20034;-86
2021/05/29 09:36:50;;;;;;;3.65;1.83;;;17.70;91.80;;;;;;4965785;29;20127;-86
2021/05/29 09:42:45;;;;;;;4.30;2.20;;;18.40;91.80;;;;;;4967275;29;20046;-87
2021/05/29 09:52:39;;;;;;;3.67;1.90;;;18.50;90.10;;;;;;4961923;29;20114;-85
2021/05/29 09:58:59;;;;;;;3.65;1.80;;;18.50;90.70;;;;;;4964187;29;20465;-86
2021/05/29 10:04:53;;;;;;;3.10;1.52;;;19.30;91.40;;;;;;4964194;29;20054;-85
2021/05/29 10:10:42;;;;;;;3.33;1.70;;;19.30;90.10;;;;;;4966435;29;20054;-85
2021/05/29 10:16:33;;;;;;;2.28;1.60;;;19.20;90.40;;;;;;4966416;28;20074;-85
2021/05/29 10:22:35;;;;;;;2.15;1.50;;;19.40;90.60;;;;;;4964236;29;20096;-87
2021/05/29 10:28:35;;;;;;;2.88;1.48;;;19.60;90.80;;;;;;4963940;29;20070;-88
2021/05/29 10:34:52;;;;;;;4.78;1.30;;;19.90;90.30;;;;;;4964302;29;20038;-88
2021/05/29 10:48:16;;;;;;;2.40;1.48;;;20.40;90.00;;;;;;4961477;28;20104;-87
2021/05/29 10:54:12;;;;;;;2.22;1.10;;;20.70;90.50;;;;;;4960178;29;20039;-86
2021/05/29 11:00:02;;;;;;;1.20;0.90;;;21.40;90.80;;;;;;4960349;29;20119;-86
2021/05/29 11:05:55;;;;;;;1.67;1.20;;;22.30;91.30;;;;;;4959106;29;20034;-86
2021/05/29 11:17:35;;;;;;;3.17;1.50;;;22.60;85.90;;;;;;4960238;29;20082;-94
2021/05/29 11:23:27;;;;;;;2.80;1.52;;;22.00;84.50;;;;;;4961609;29;20065;-94
2021/05/29 11:29:16;;;;;;;4.97;2.33;;;21.50;85.50;;;;;;4961095;28;20094;-93
2021/05/29 11:35:04;;;;;;;1.25;1.25;;;23.60;93.10;;;;;;4965901;29;20043;-93
2021/05/29 11:40:58;;;;;;;1.70;1.60;;;26.10;92.20;;;;;;4965928;29;20066;-93
2021/05/29 11:46:47;;;;;;;2.10;1.40;;;28.20;91.70;;;;;;4979421;28;20022;-89
2021/05/29 11:52:44;;;;;;;2.67;1.50;;;29.60;90.80;;;;;;5003110;28;20102;-86
2021/05/29 11:58:56;;;;;;;2.17;1.40;;;30.90;90.40;;;;;;5003247;28;20101;-88
2021/05/29 12:04:52;;;;;;;1.40;1.30;;;32.90;90.60;;;;;;4987083;28;20116;-94
2021/05/29 12:10:50;;;;;;;1.95;1.40;;;34.00;86.10;;;;;;4984792;28;20050;-93
2021/05/29 12:16:53;;;;;;;1.10;1.00;;;31.90;84.90;;;;;;4985053;28;20098;-94
2021/05/29 12:22:42;;;;;;;4.38;1.50;;;34.40;88.90;;;;;;4986567;28;20034;-95
2021/05/29 12:28:32;;;;;;;2.30;0.93;;;36.60;83.20;;;;;;4986197;28;20066;-94
2021/05/29 12:34:25;;;;;;;3.83;1.30;;;33.20;71.10;;;;;;4986742;28;20444;-92
2021/05/29 12:40:16;;;;;;;2.25;1.35;;;29.40;68.80;;;;;;4984631;28;20058;-95
2021/05/29 12:46:06;;;;;;;2.35;1.35;;;27.60;72.00;;;;;;4982881;28;20047;-94
2021/05/29 12:56:16;;;;;;;5.95;1.70;;;26.70;72.50;;;;;;4962960;29;20132;-93
2021/05/29 13:08:11;;;;;;;2.50;1.30;;;26.60;73.30;;;;;;4963635;29;20523;-95
2021/05/29 13:14:03;;;;;;;2.92;1.45;;;26.60;72.70;;;;;;4964582;29;20038;-92
2021/05/29 13:20:06;;;;;;;1.42;1.33;;;26.60;73.30;;;;;;4963496;29;20082;-92
2021/05/29 13:25:54;;;;;;;2.40;1.48;;;26.20;71.40;;;;;;4964101;29;20039;-94
2021/05/29 13:31:42;;;;;;;2.60;1.52;;;25.10;68.80;;;;;;4964299;29;20490;-94
2021/05/29 13:37:31;;;;;;;3.05;1.55;;;24.30;71.10;;;;;;4966660;29;20034;-93
2021/05/29 13:43:20;;;;;;;3.53;1.80;;;24.50;75.50;;;;;;4965953;29;20115;-94
2021/05/29 13:49:10;;;;;;;9.23;2.10;;;29.30;92.50;;;;;;4965317;29;20041;-93
2021/05/29 13:59:00;;;;;;;3.78;1.25;;;31.20;66.50;;;;;;4963617;29;20046;-93
2021/05/29 14:04:49;;;;;;;3.75;1.40;;;28.30;68.80;;;;;;4963736;29;20038;-93
2021/05/29 14:10:42;;;;;;;2.35;1.38;;;28.10;82.50;;;;;;4962542;29;20051;-94
2021/05/29 14:16:31;;;;;;;1.38;1.27;;;32.70;74.50;;;;;;4962380;29;20078;-95
2021/05/29 14:22:21;;;;;;;2.00;1.60;;;30.10;68.80;;;;;;4964967;29;20092;-94
2021/05/29 14:28:09;;;;;;;2.67;1.50;;;33.90;92.10;;;;;;4965398;29;20034;-93
2021/05/29 14:33:59;;;;;;;1.50;1.13;;;36.50;70.70;;;;;;4967010;29;20034;-94
2021/05/29 14:39:48;;;;;;;1.42;1.20;;;33.70;64.80;;;;;;4969318;29;20387;-94
2021/05/29 14:45:37;;;;;;;1.63;1.40;;;30.90;63.10;;;;;;4967568;29;20038;-92
2021/05/29 14:51:30;;;;;;;3.78;1.20;;;28.80;65.70;;;;;;4965471;29;20033;-94
2021/05/29 15:01:22;;;;;;;1.30;1.20;;;34.80;90.00;;;;;;4964480;29;20097;-92
2021/05/29 15:07:11;;;;;;;1.83;1.50;;;39.90;81.00;;;;;;4964846;29;20455;-91
2021/05/29 15:13:01;;;;;;;2.95;1.50;;;41.80;70.40;;;;;;4965656;29;20066;-92
2021/05/29 15:18:50;;;;;;;1.77;1.40;;;41.20;67.30;;;;;;4964784;29;20042;-93
2021/05/29 15:24:41;;;;;;;1.95;1.70;;;42.50;68.70;;;;;;4965137;29;20083;-92
2021/05/29 15:30:29;;;;;;;1.80;1.30;;;42.70;60.70;;;;;;4964985;29;20033;-91
2021/05/29 15:36:17;;;;;;;2.38;1.70;;;40.50;53.40;;;;;;4964265;29;20059;-93
2021/05/29 15:42:07;;;;;;;1.33;1.20;;;41.90;62.00;;;;;;4966080;29;20533;-92
2021/05/29 15:47:56;;;;;;;1.60;1.50;;;44.00;61.40;;;;;;4964301;29;20037;-93
2021/05/29 15:53:46;;;;;;;1.40;1.30;;;43.30;52.70;;;;;;4965758;29;20078;-91
2021/05/29 16:03:36;;;;;;;2.33;1.20;;;43.10;47.40;;;;;;4961588;29;20038;-91
2021/05/29 16:09:26;;;;;;;1.50;1.30;;;43.50;46.00;;;;;;4968532;29;20063;-94
2021/05/29 16:15:16;;;;;;;1.67;1.40;;;43.80;45.70;;;;;;4980612;28;20050;-92
2021/05/29 16:21:06;;;;;;;5.07;2.53;;;43.20;45.00;;;;;;4968507;29;20375;-91
2021/05/29 16:26:57;;;;;;;1.42;1.27;;;42.40;42.00;;;;;;4971774;29;20047;-92
2021/05/29 16:32:56;;;;;;;3.40;2.05;;;38.90;38.70;;;;;;4968149;29;20034;-89
2021/05/29 16:38:49;;;;;;;1.40;1.15;;;37.60;44.80;;;;;;4968753;29;20034;-92
2021/05/29 16:44:39;;;;;;;3.15;1.42;;;38.60;44.50;;;;;;4974364;29;20550;-94
2021/05/29 16:50:31;;;;;;;2.05;1.30;;;38.50;42.10;;;;;;4972047;29;20034;-94
2021/05/29 16:56:27;;;;;;;2.05;1.50;;;36.30;36.60;;;;;;4967914;29;20042;-94
2021/05/29 17:06:37;;;;;;;1.30;1.13;;;32.80;39.20;;;;;;4969642;29;20050;-94
2021/05/29 17:12:26;;;;;;;6.78;3.47;;;30.60;44.70;;;;;;4968544;29;20431;-95
2021/05/29 17:18:16;;;;;;;2.15;1.63;;;31.40;45.20;;;;;;4970617;29;20108;-94
2021/05/29 17:24:13;;;;;;;1.13;1.02;;;31.90;45.80;;;;;;4972406;29;20026;-94
2021/05/29 17:30:05;;;;;;;1.67;1.30;;;32.20;45.70;;;;;;4971332;29;20046;-93
2021/05/29 17:35:56;;;;;;;1.30;1.15;;;32.40;46.30;;;;;;4967208;29;20050;-93
2021/05/29 17:41:47;;;;;;;2.85;1.30;;;32.60;45.80;;;;;;4968099;29;20066;-94
2021/05/29 17:47:38;;;;;;;2.97;1.60;;;32.10;44.40;;;;;;4970209;29;20049;-94
2021/05/29 17:53:29;;;;;;;2.88;1.70;;;30.20;42.10;;;;;;4968105;29;20047;-94
2021/05/29 17:59:24;;;;;;;3.08;1.70;;;28.20;42.30;;;;;;4960339;29;20089;-93
2021/05/29 18:09:08;;;;;;;4.93;2.20;;;26.10;43.30;;;;;;4958409;29;20484;-94
2021/05/29 18:15:00;;;;;;;2.38;1.45;;;24.90;42.80;;;;;;4957905;29;20542;-94
2021/05/29 18:20:50;;;;;;;4.03;1.90;;;23.80;43.30;;;;;;4958465;29;20029;-95
2021/05/29 18:26:38;;;;;;;3.85;1.80;;;23.10;44.00;;;;;;4958357;29;20070;-94
2021/05/29 18:32:27;;;;;;;2.70;1.77;;;22.40;44.50;;;;;;4960962;29;20046;-93
2021/05/29 18:44:26;;;;;;;4.70;2.20;;;21.30;45.90;;;;;;4956011;29;20487;-85
2021/05/29 18:50:27;;;;;;;3.60;1.90;;;20.90;46.60;;;;;;4955656;29;20105;-88
2021/05/29 18:56:19;;;;;;;4.65;2.00;;;20.50;47.20;;;;;;4955547;29;20462;-88
2021/05/29 19:20:45;;;;;;;4.40;2.03;;;19.00;49.20;;;;;;4936107;28;20381;-90
2021/05/29 19:46:22;;;;;;;4.65;2.25;;;17.40;50.10;;;;;;4974840;28;20097;-88
2021/05/29 20:05:16;;;;;;;6.07;2.58;;;16.80;51.30;;;;;;4978003;28;20030;-89
2021/05/29 20:11:45;;;;;;;5.78;2.67;;;16.80;51.60;;;;;;4978128;28;20042;-87
2021/05/29 20:35:11;;;;;;;3.75;2.08;;;16.40;52.60;;;;;;4960383;29;20049;-89
2021/05/29 20:41:09;;;;;;;5.72;2.53;;;16.20;52.80;;;;;;4958161;29;20161;-88
2021/05/29 20:46:58;;;;;;;7.95;2.60;;;15.90;53.10;;;;;;4958139;29;20101;-89
2021/05/29 20:52:55;;;;;;;5.35;2.50;;;15.90;53.40;;;;;;4958020;29;20037;-89
2021/05/29 20:58:50;;;;;;;6.60;2.47;;;15.90;53.80;;;;;;4957698;29;20514;-89
2021/05/29 21:04:49;;;;;;;4.38;2.20;;;15.80;54.10;;;;;;4957505;29;20479;-88
2021/05/29 21:10:38;;;;;;;6.07;3.00;;;15.70;54.40;;;;;;4957670;29;20050;-89
2021/05/29 21:16:38;;;;;;;6.28;2.72;;;15.70;54.50;;;;;;4957220;28;20046;-87
2021/05/29 21:22:29;;;;;;;7.03;3.40;;;15.70;54.80;;;;;;4957316;29;20050;-88
2021/05/29 21:28:19;;;;;;;8.02;3.03;;;15.60;54.90;;;;;;4957441;29;20046;-89
2021/05/29 21:34:07;;;;;;;6.85;3.20;;;15.50;55.10;;;;;;4957352;29;20051;-88
2021/05/29 21:39:57;;;;;;;10.52;5.20;;;15.40;55.20;;;;;;4956999;29;20081;-88
2021/05/29 21:51:33;;;;;;;5.50;2.70;;;15.10;55.50;;;;;;4956767;29;20026;-88
2021/05/29 21:57:22;;;;;;;5.75;2.80;;;15.00;55.80;;;;;;4957020;29;20054;-88
2021/05/29 22:03:11;;;;;;;5.97;2.90;;;14.80;56.00;;;;;;4958142;29;20396;-87
2021/05/29 22:09:22;;;;;;;6.97;3.33;;;14.70;56.20;;;;;;4957818;29;20034;-87
2021/05/29 22:21:36;;;;;;;6.43;2.95;;;14.30;56.50;;;;;;4956648;29;20578;-86
2021/05/29 22:33:39;;;;;;;7.28;3.47;;;13.90;57.00;;;;;;4956164;29;20070;-89
2021/05/29 22:39:28;;;;;;;7.57;3.58;;;13.80;57.20;;;;;;4956154;29;20114;-87
2021/05/29 22:45:56;;;;;;;;;;;;;;;;;;;;;
2021/05/29 22:51:45;;;;;;;7.97;3.78;;;13.30;57.50;;;;;;4956141;29;20046;-88
2021/05/29 22:57:34;;;;;;;9.57;3.78;;;13.10;57.70;;;;;;4955810;29;20050;-88
2021/05/29 23:03:22;;;;;;;8.07;4.00;;;13.00;58.00;;;;;;4955664;29;20058;-88
2021/05/29 23:09:12;;;;;;;8.38;3.80;;;12.70;58.00;;;;;;4955846;29;20131;-88
2021/05/29 23:15:00;;;;;;;7.93;3.80;;;12.50;58.30;;;;;;4955479;29;20058;-87
2021/05/29 23:17:26;;;;;;;7.68;3.78;;;12.40;58.20;;;;;;4955335;28;20209;-86
2021/05/29 23:23:15;;;;;;;8.93;3.70;;;12.30;58.50;;;;;;4955501;28;20391;-86
2021/05/29 23:29:04;;;;;;;7.32;3.20;;;12.10;58.70;;;;;;4959685;29;20026;-86
2021/05/29 23:34:53;;;;;;;7.82;3.72;;;12.00;59.10;;;;;;4959173;29;20055;-87
2021/05/29 23:40:42;;;;;;;9.25;4.07;;;11.90;59.10;;;;;;4959329;29;20058;-87
2021/05/29 23:46:32;;;;;;;10.00;4.50;;;11.60;59.20;;;;;;4959225;29;20034;-87
2021/05/29 23:52:22;;;;;;;9.30;4.53;;;11.50;59.40;;;;;;4958904;29;20493;-88
2021/05/29 23:58:12;;;;;;;10.00;4.45;;;11.20;59.60;;;;;;4958760;29;20053;-88
